KCIN

Arthur N Neu Airport

Carroll, Iowa, USA
METAR KCIN 231415Z AUTO 28007KT 6SM BR CLR M06/M07 A3022 RMK AO2
Observed Flight Rules
Feb-23 @ 14:15 UTC (7 minutes ago) Visual Flight Rules
Wind Visibility Clouds Conditions
280° at 7 knots 6 miles
  • Clear skies
  • Mist
Temperatures Readings
Current -6°C / 21°F
Dewpoint -7°C / 19°F
Humidity 93%
Altimeter 30.22" Hg
Pressure 1023 hPa
Elevation 375
METAR KCIN 231415Z AUTO 28007KT 6SM BR CLR M06/M07 A3022 RMK AO2
Observed Flight Rules
Feb-23 @ 14:15 UTC
(7 minutes ago)
VFR
Wind Visibility
280° at 7 knots 6 miles
Clouds
  • Clear skies
Conditions
  • Mist
Temperature Dewpoint
-6°C / 21°F -7°C / 19°F
Humidity Altimeter Pressure
93% 30.22" Hg 1023 hPa